createdAt,value
2022-11-30T00:01:19.816Z,5.14
2022-11-30T00:03:49.962Z,5.12
2022-11-30T00:06:23.446Z,5.11
2022-11-30T00:08:59.383Z,5.10
2022-11-30T00:11:30.990Z,5.10
2022-11-30T00:13:57.613Z,5.08
2022-11-30T00:16:26.895Z,5.07
2022-11-30T00:18:53.429Z,5.11
2022-11-30T00:21:20.000Z,5.10
2022-11-30T00:23:49.128Z,5.07
2022-11-30T00:26:19.265Z,5.08
2022-11-30T00:28:47.496Z,5.07
2022-11-30T00:31:16.204Z,5.04
2022-11-30T00:33:43.011Z,5.07
2022-11-30T00:36:18.398Z,5.07
2022-11-30T00:38:45.678Z,5.07
2022-11-30T00:41:12.693Z,5.09
2022-11-30T00:43:39.367Z,5.11
2022-11-30T00:46:06.588Z,5.05
2022-11-30T00:48:33.170Z,5.03
2022-11-30T00:50:59.738Z,5.03
2022-11-30T00:53:26.783Z,5.05
2022-11-30T00:55:56.942Z,5.05
2022-11-30T00:58:23.450Z,5.05
2022-11-30T01:00:50.167Z,4.99
2022-11-30T01:03:23.073Z,5.00
2022-11-30T01:05:49.585Z,4.99
2022-11-30T01:08:16.213Z,5.07
2022-11-30T01:10:44.409Z,5.05
2022-11-30T01:13:14.389Z,5.06
2022-11-30T01:15:43.952Z,5.03
2022-11-30T01:18:14.156Z,5.04
2022-11-30T01:20:44.804Z,5.05
2022-11-30T01:23:11.795Z,5.05
2022-11-30T01:25:38.881Z,5.04
2022-11-30T01:28:05.822Z,5.01
2022-11-30T01:30:32.555Z,4.99
2022-11-30T01:33:06.588Z,5.01
2022-11-30T01:35:33.089Z,4.95
2022-11-30T01:38:03.115Z,4.98
2022-11-30T01:40:29.635Z,5.01
2022-11-30T01:42:56.104Z,4.99
2022-11-30T01:45:22.760Z,4.96
2022-11-30T01:47:53.508Z,4.98
2022-11-30T01:50:30.659Z,4.92
2022-11-30T01:52:58.045Z,4.92
2022-11-30T01:55:27.671Z,4.91
2022-11-30T01:58:02.359Z,4.92
2022-11-30T02:00:29.196Z,4.92
2022-11-30T02:03:00.437Z,4.92
2022-11-30T02:05:27.580Z,4.93
2022-11-30T02:07:54.490Z,4.87
2022-11-30T02:10:30.130Z,4.89
2022-11-30T02:13:13.972Z,4.93
2022-11-30T02:15:55.711Z,4.94
2022-11-30T02:18:46.259Z,4.95
2022-11-30T02:21:38.368Z,4.95
2022-11-30T02:24:20.659Z,4.97
2022-11-30T02:26:47.139Z,4.91
2022-11-30T02:29:21.372Z,4.87
2022-11-30T02:31:50.868Z,4.93
2022-11-30T02:34:21.181Z,4.94
2022-11-30T02:36:48.500Z,4.94
2022-11-30T02:39:15.060Z,4.96
2022-11-30T02:41:44.059Z,4.95
2022-11-30T02:44:11.911Z,5.02
2022-11-30T02:46:53.007Z,4.95
2022-11-30T02:49:30.515Z,4.96
2022-11-30T02:51:58.542Z,4.98
2022-11-30T02:54:25.180Z,5.01
2022-11-30T02:56:52.026Z,4.95
2022-11-30T02:59:19.200Z,4.96
2022-11-30T03:01:45.728Z,4.98
2022-11-30T03:04:12.286Z,4.92
2022-11-30T03:06:38.759Z,4.91
2022-11-30T03:09:05.421Z,4.86
2022-11-30T03:11:35.278Z,4.84
2022-11-30T03:14:01.864Z,4.91
2022-11-30T03:16:31.542Z,4.88
2022-11-30T03:18:58.847Z,4.90
2022-11-30T03:21:25.744Z,4.87
2022-11-30T03:23:55.480Z,4.87
2022-11-30T03:26:22.106Z,4.88
2022-11-30T03:28:48.595Z,4.89
2022-11-30T03:31:15.217Z,4.90
2022-11-30T03:33:44.650Z,4.90
2022-11-30T03:36:12.357Z,4.87
2022-11-30T03:38:39.590Z,4.89
2022-11-30T03:41:12.711Z,4.94
2022-11-30T03:43:39.163Z,4.96
2022-11-30T03:46:06.331Z,4.94
2022-11-30T03:48:34.969Z,4.87
2022-11-30T03:51:02.402Z,4.92
2022-11-30T03:53:28.869Z,4.92
2022-11-30T03:55:59.883Z,4.93
2022-11-30T03:58:32.749Z,4.88
2022-11-30T04:01:03.339Z,4.90
2022-11-30T04:03:30.687Z,4.83
2022-11-30T04:05:58.493Z,4.85
2022-11-30T04:08:28.069Z,4.83
2022-11-30T04:10:56.390Z,4.72
2022-11-30T04:13:23.907Z,4.81
2022-11-30T04:15:54.421Z,4.86
2022-11-30T04:18:24.044Z,4.85
2022-11-30T04:20:52.371Z,4.89
2022-11-30T04:23:19.337Z,4.89
2022-11-30T04:25:47.929Z,4.88
2022-11-30T04:28:20.223Z,4.88
2022-11-30T04:30:47.314Z,4.91
2022-11-30T04:33:15.758Z,4.93
2022-11-30T04:35:48.373Z,4.95
2022-11-30T04:38:14.877Z,4.95
2022-11-30T04:40:42.917Z,4.94
2022-11-30T04:43:10.087Z,4.98
2022-11-30T04:45:36.978Z,5.02
2022-11-30T04:48:06.034Z,4.99
2022-11-30T04:50:32.691Z,5.00
2022-11-30T04:52:59.385Z,4.99
2022-11-30T04:55:26.332Z,5.00
2022-11-30T04:57:53.262Z,4.97
2022-11-30T05:00:20.468Z,4.97
2022-11-30T05:02:52.523Z,4.98
2022-11-30T05:05:19.668Z,5.02
2022-11-30T05:07:50.881Z,5.03
2022-11-30T05:10:20.267Z,5.00
2022-11-30T05:12:46.745Z,5.02
2022-11-30T05:15:13.209Z,5.02
2022-11-30T05:17:39.757Z,5.03
2022-11-30T05:20:10.250Z,5.01
2022-11-30T05:22:39.605Z,4.95
2022-11-30T05:25:07.100Z,4.95
2022-11-30T05:27:33.737Z,4.92
2022-11-30T05:30:00.225Z,4.97
2022-11-30T05:32:26.881Z,4.98
2022-11-30T05:34:53.974Z,4.99
2022-11-30T05:37:26.224Z,4.99
2022-11-30T05:39:52.732Z,4.99
2022-11-30T05:42:22.609Z,4.98
2022-11-30T05:44:51.179Z,5.01
2022-11-30T05:47:17.988Z,5.01
2022-11-30T05:49:44.762Z,4.96
2022-11-30T05:52:11.515Z,4.96
2022-11-30T05:54:39.491Z,4.91
2022-11-30T05:57:05.959Z,4.90
2022-11-30T05:59:32.609Z,4.92
2022-11-30T06:01:59.226Z,4.96
2022-11-30T06:04:25.960Z,4.97
2022-11-30T06:06:55.502Z,4.96
2022-11-30T06:09:22.679Z,4.99
2022-11-30T06:11:49.183Z,4.99
2022-11-30T06:14:15.661Z,4.98
2022-11-30T06:16:42.186Z,4.99
2022-11-30T06:19:08.769Z,4.98
2022-11-30T06:21:35.242Z,5.02
2022-11-30T06:24:03.469Z,5.03
2022-11-30T06:26:30.057Z,5.03
2022-11-30T06:28:56.522Z,5.07
2022-11-30T06:31:23.103Z,5.03
2022-11-30T06:33:49.692Z,4.99
2022-11-30T06:36:22.378Z,4.99
2022-11-30T06:38:49.029Z,4.99
2022-11-30T06:41:15.633Z,4.97
2022-11-30T06:43:45.234Z,4.89
2022-11-30T06:46:11.809Z,4.98
2022-11-30T06:48:39.011Z,5.02
2022-11-30T06:51:07.353Z,5.01
2022-11-30T06:53:34.466Z,4.98
2022-11-30T06:56:10.364Z,4.99
2022-11-30T06:58:39.142Z,4.99
2022-11-30T07:01:07.956Z,4.91
2022-11-30T07:03:36.562Z,4.95
2022-11-30T07:06:08.082Z,4.98
2022-11-30T07:08:34.784Z,5.06
2022-11-30T07:11:01.319Z,5.05
2022-11-30T07:13:29.751Z,5.00
2022-11-30T07:15:58.959Z,5.00
2022-11-30T07:18:31.455Z,4.99
2022-11-30T07:21:00.725Z,5.01
2022-11-30T07:23:49.489Z,5.05
2022-11-30T07:26:19.966Z,5.04
2022-11-30T07:28:49.818Z,5.02
2022-11-30T07:31:18.818Z,5.05
2022-11-30T07:33:46.543Z,5.05
2022-11-30T07:36:13.413Z,5.06
2022-11-30T07:38:42.968Z,5.11
2022-11-30T07:41:09.796Z,5.07
2022-11-30T07:43:36.297Z,5.07
2022-11-30T07:46:03.841Z,5.06
2022-11-30T07:48:30.556Z,5.07
2022-11-30T07:51:10.095Z,5.08
2022-11-30T07:53:39.327Z,5.07
2022-11-30T07:56:08.989Z,5.06
2022-11-30T07:58:35.781Z,5.08
2022-11-30T08:01:07.665Z,5.07
2022-11-30T08:03:38.905Z,5.04
2022-11-30T08:06:07.339Z,5.06
2022-11-30T08:08:36.534Z,5.09
2022-11-30T08:11:04.570Z,5.10
2022-11-30T08:13:31.303Z,5.13
2022-11-30T08:16:20.970Z,5.11
2022-11-30T08:18:47.802Z,5.06
2022-11-30T08:21:16.837Z,5.08
2022-11-30T08:23:45.966Z,5.09
2022-11-30T08:26:20.576Z,5.07
2022-11-30T08:28:49.095Z,5.08
2022-11-30T08:31:19.164Z,5.17
2022-11-30T08:33:46.269Z,5.13
2022-11-30T08:36:13.746Z,5.14
2022-11-30T08:38:42.155Z,5.16
2022-11-30T08:41:10.315Z,5.15
2022-11-30T08:43:36.828Z,5.12
2022-11-30T08:46:27.522Z,5.12
2022-11-30T08:49:07.357Z,5.11
2022-11-30T08:52:14.701Z,5.09
2022-11-30T08:54:27.416Z,5.08
2022-11-30T08:56:56.908Z,5.14
2022-11-30T08:59:23.403Z,5.14
2022-11-30T09:01:49.879Z,5.15
2022-11-30T09:04:19.490Z,5.16
2022-11-30T09:06:46.023Z,5.22
2022-11-30T09:09:12.547Z,5.22
2022-11-30T09:11:39.078Z,5.21
2022-11-30T09:14:06.658Z,5.19
2022-11-30T09:16:33.726Z,5.22
2022-11-30T09:19:03.041Z,5.27
2022-11-30T09:21:29.681Z,5.25
2022-11-30T09:23:56.711Z,5.31
2022-11-30T09:26:25.219Z,5.33
2022-11-30T09:28:53.361Z,5.34
2022-11-30T09:31:27.625Z,5.36
2022-11-30T09:33:58.866Z,5.34
2022-11-30T09:36:27.288Z,5.34
2022-11-30T09:38:55.126Z,5.32
2022-11-30T09:41:24.212Z,5.36
2022-11-30T09:43:56.476Z,5.37
2022-11-30T09:46:39.819Z,5.36
2022-11-30T09:49:14.144Z,5.41
2022-11-30T09:51:54.607Z,5.38
2022-11-30T09:54:39.710Z,5.38
2022-11-30T09:57:18.374Z,5.37
2022-11-30T09:59:54.143Z,5.40
2022-11-30T10:02:22.463Z,5.40
2022-11-30T10:04:49.740Z,5.41
2022-11-30T10:07:40.492Z,5.45
2022-11-30T10:10:33.000Z,5.43
2022-11-30T10:13:12.395Z,5.43
2022-11-30T10:16:04.535Z,5.43
2022-11-30T10:19:07.738Z,5.40
2022-11-30T10:22:05.199Z,5.36
2022-11-30T10:25:12.015Z,5.36
2022-11-30T10:28:12.682Z,5.41
2022-11-30T10:30:48.979Z,5.43
2022-11-30T10:33:22.576Z,5.42
2022-11-30T10:35:56.350Z,5.36
2022-11-30T10:38:33.810Z,5.39
2022-11-30T10:41:31.147Z,5.38
2022-11-30T10:44:04.961Z,5.41
2022-11-30T10:46:36.536Z,5.40
2022-11-30T10:49:25.707Z,5.44
2022-11-30T10:51:57.012Z,5.46
2022-11-30T10:54:23.786Z,5.44
2022-11-30T10:56:50.464Z,5.50
2022-11-30T10:59:26.027Z,5.50
2022-11-30T11:01:53.488Z,5.52
2022-11-30T11:04:27.869Z,5.52
2022-11-30T11:07:15.469Z,5.60
2022-11-30T11:09:50.358Z,5.57
2022-11-30T11:12:30.589Z,5.62
2022-11-30T11:15:26.816Z,5.65
2022-11-30T11:18:01.951Z,5.65
2022-11-30T11:20:30.469Z,5.60
2022-11-30T11:22:57.192Z,5.62
2022-11-30T11:25:37.398Z,5.63
2022-11-30T11:28:14.066Z,5.60
2022-11-30T11:30:42.785Z,5.58
2022-11-30T11:33:12.247Z,5.62
2022-11-30T11:35:42.552Z,5.62
2022-11-30T11:38:28.204Z,5.64
2022-11-30T11:41:01.197Z,5.64
2022-11-30T11:43:34.265Z,5.69
2022-11-30T11:46:13.893Z,5.70
2022-11-30T11:48:48.721Z,5.69
2022-11-30T11:51:36.050Z,5.67
2022-11-30T11:54:15.220Z,5.66
2022-11-30T11:56:41.829Z,5.68
2022-11-30T11:59:14.728Z,5.67
2022-11-30T12:01:47.361Z,5.67
2022-11-30T12:04:28.936Z,5.71
2022-11-30T12:06:58.752Z,5.73
2022-11-30T12:09:34.914Z,5.73
2022-11-30T12:12:01.726Z,5.74
2022-11-30T12:14:35.283Z,5.74
2022-11-30T12:17:16.616Z,5.77
2022-11-30T12:20:06.499Z,5.75
2022-11-30T12:22:48.740Z,5.76
2022-11-30T12:25:28.190Z,5.71
2022-11-30T12:28:01.380Z,5.69
2022-11-30T12:30:52.675Z,5.76
2022-11-30T12:33:25.399Z,5.76
2022-11-30T12:35:54.938Z,5.77
2022-11-30T12:38:30.480Z,5.79
2022-11-30T12:41:12.328Z,5.77
2022-11-30T12:44:04.657Z,5.79
2022-11-30T12:46:50.034Z,5.75
2022-11-30T12:50:01.608Z,5.80
2022-11-30T12:52:35.884Z,5.82
2022-11-30T12:55:05.745Z,5.81
2022-11-30T12:58:00.035Z,5.81
2022-11-30T13:00:34.458Z,5.80
2022-11-30T13:03:26.352Z,5.77
2022-11-30T13:06:00.102Z,5.77
2022-11-30T13:08:38.093Z,5.79
2022-11-30T13:11:17.394Z,5.81
2022-11-30T13:13:50.554Z,5.78
2022-11-30T13:16:21.258Z,5.76
2022-11-30T13:18:49.906Z,5.75
2022-11-30T13:21:21.348Z,5.75
2022-11-30T13:23:47.810Z,5.73
2022-11-30T13:26:29.455Z,5.71
2022-11-30T13:29:20.417Z,5.69
2022-11-30T13:31:56.162Z,5.63
2022-11-30T13:34:29.889Z,5.64
2022-11-30T13:37:10.349Z,5.63
2022-11-30T13:39:54.589Z,5.60
2022-11-30T13:42:36.866Z,5.56
2022-11-30T13:45:12.690Z,5.56
2022-11-30T13:47:43.351Z,5.51
2022-11-30T13:50:38.623Z,5.55
2022-11-30T13:53:17.345Z,5.55
2022-11-30T13:56:08.061Z,5.52
2022-11-30T13:58:35.040Z,5.47
2022-11-30T14:01:21.756Z,5.51
2022-11-30T14:04:23.347Z,5.50
2022-11-30T14:06:51.292Z,5.50
2022-11-30T14:09:40.245Z,5.51
2022-11-30T14:12:34.521Z,5.46
2022-11-30T14:15:02.463Z,5.46
2022-11-30T14:17:35.661Z,5.47
2022-11-30T14:20:15.345Z,5.45
2022-11-30T14:22:45.624Z,5.44
2022-11-30T14:25:15.104Z,5.48
2022-11-30T14:27:46.500Z,5.50
2022-11-30T14:30:16.850Z,5.49
2022-11-30T14:32:51.903Z,5.45
2022-11-30T14:35:23.147Z,5.46
2022-11-30T14:37:58.512Z,5.45
2022-11-30T14:40:29.700Z,5.41
2022-11-30T14:42:59.245Z,5.40
2022-11-30T14:45:27.744Z,5.39
2022-11-30T14:48:11.717Z,5.42
2022-11-30T14:50:44.213Z,5.40
2022-11-30T14:53:38.996Z,5.42
2022-11-30T14:56:24.798Z,5.35
2022-11-30T14:59:02.060Z,5.40
2022-11-30T15:01:31.945Z,5.37
2022-11-30T15:04:14.093Z,5.35
2022-11-30T15:06:40.811Z,5.38
2022-11-30T15:09:16.941Z,5.34
2022-11-30T15:11:46.854Z,5.33
2022-11-30T15:14:13.915Z,5.36
2022-11-30T15:16:55.203Z,5.34
2022-11-30T15:19:26.005Z,5.33
2022-11-30T15:21:53.657Z,5.30
2022-11-30T15:24:21.433Z,5.29
2022-11-30T15:26:56.545Z,5.21
2022-11-30T15:29:33.550Z,5.24
2022-11-30T15:32:03.848Z,5.22
2022-11-30T15:34:40.070Z,5.22
2022-11-30T15:37:07.687Z,5.17
2022-11-30T15:39:34.256Z,5.17
2022-11-30T15:42:02.661Z,5.19
2022-11-30T15:44:44.146Z,5.21
2022-11-30T15:47:26.301Z,5.19
2022-11-30T15:49:54.540Z,5.20
2022-11-30T15:52:26.033Z,5.14
2022-11-30T15:54:58.821Z,5.18
2022-11-30T15:57:46.203Z,5.11
2022-11-30T16:00:15.690Z,5.11
2022-11-30T16:02:42.922Z,5.11
2022-11-30T16:05:14.847Z,5.09
2022-11-30T16:07:48.765Z,5.13
2022-11-30T16:10:35.471Z,5.15
2022-11-30T16:13:02.363Z,5.14
2022-11-30T16:15:35.027Z,5.11
2022-11-30T16:18:07.471Z,5.08
2022-11-30T16:20:34.287Z,5.06
2022-11-30T16:23:05.478Z,5.01
2022-11-30T16:25:32.385Z,5.06
2022-11-30T16:28:02.855Z,5.07
2022-11-30T16:30:30.337Z,5.01
2022-11-30T16:32:57.072Z,4.96
2022-11-30T16:35:30.276Z,4.96
2022-11-30T16:37:56.769Z,4.91
2022-11-30T16:40:23.253Z,4.91
2022-11-30T16:42:53.405Z,4.92
2022-11-30T16:45:23.173Z,4.92
2022-11-30T16:47:54.580Z,4.86
2022-11-30T16:50:23.502Z,4.81
2022-11-30T16:52:51.695Z,4.79
2022-11-30T16:55:22.975Z,4.83
2022-11-30T16:57:49.775Z,4.77
2022-11-30T17:00:19.237Z,4.76
2022-11-30T17:03:09.285Z,4.73
2022-11-30T17:05:37.255Z,4.71
2022-11-30T17:08:04.038Z,4.66
2022-11-30T17:10:30.615Z,4.68
2022-11-30T17:12:57.124Z,4.67
2022-11-30T17:15:24.676Z,4.69
2022-11-30T17:17:51.460Z,4.64
2022-11-30T17:20:18.529Z,4.64
2022-11-30T17:22:45.464Z,4.66
2022-11-30T17:25:16.176Z,4.65
2022-11-30T17:27:44.759Z,4.70
2022-11-30T17:30:13.229Z,4.69
2022-11-30T17:32:39.696Z,4.63
2022-11-30T17:35:06.609Z,4.62
2022-11-30T17:37:33.110Z,4.59
2022-11-30T17:39:59.591Z,4.59
2022-11-30T17:42:26.059Z,4.54
2022-11-30T17:44:52.886Z,4.56
2022-11-30T17:47:19.453Z,4.54
2022-11-30T17:49:45.906Z,4.52
2022-11-30T17:52:15.291Z,4.48
2022-11-30T17:54:42.159Z,4.39
2022-11-30T17:57:08.683Z,4.46
2022-11-30T17:59:38.499Z,4.41
2022-11-30T18:02:05.186Z,4.46
2022-11-30T18:04:34.995Z,4.46
2022-11-30T18:07:01.476Z,4.48
2022-11-30T18:09:27.990Z,4.44
2022-11-30T18:11:54.679Z,4.44
2022-11-30T18:14:21.166Z,4.42
2022-11-30T18:16:47.826Z,4.38
2022-11-30T18:19:15.454Z,4.39
2022-11-30T18:21:48.201Z,4.37
2022-11-30T18:24:14.759Z,4.34
2022-11-30T18:26:44.108Z,4.37
2022-11-30T18:29:11.016Z,4.40
2022-11-30T18:31:37.625Z,4.39
2022-11-30T18:34:06.446Z,4.38
2022-11-30T18:36:33.971Z,4.37
2022-11-30T18:39:00.757Z,4.34
2022-11-30T18:41:30.506Z,4.31
2022-11-30T18:43:57.984Z,4.35
2022-11-30T18:46:27.887Z,4.33
2022-11-30T18:48:54.732Z,4.35
2022-11-30T18:51:24.257Z,4.28
2022-11-30T18:53:57.697Z,4.25
2022-11-30T18:56:28.606Z,4.30
2022-11-30T18:58:57.755Z,4.32
2022-11-30T19:01:28.479Z,4.35
2022-11-30T19:04:00.446Z,4.37
2022-11-30T19:06:29.477Z,4.38
2022-11-30T19:08:57.427Z,4.33
2022-11-30T19:11:24.643Z,4.36
2022-11-30T19:13:58.633Z,4.31
2022-11-30T19:16:26.860Z,4.33
2022-11-30T19:18:54.375Z,4.29
2022-11-30T19:21:22.424Z,4.26
2022-11-30T19:23:49.848Z,4.24
2022-11-30T19:26:16.567Z,4.30
2022-11-30T19:28:46.713Z,4.29
2022-11-30T19:31:16.238Z,4.26
2022-11-30T19:33:45.327Z,4.23
2022-11-30T19:36:20.455Z,4.26
2022-11-30T19:38:47.675Z,4.24
2022-11-30T19:41:15.538Z,4.28
2022-11-30T19:43:47.832Z,4.30
2022-11-30T19:46:22.011Z,4.26
2022-11-30T19:48:48.667Z,4.31
2022-11-30T19:51:18.623Z,4.31
2022-11-30T19:53:46.012Z,4.31
2022-11-30T19:56:17.463Z,4.34
2022-11-30T19:58:45.597Z,4.34
2022-11-30T20:01:17.034Z,4.27
2022-11-30T20:03:44.443Z,4.27
2022-11-30T20:06:14.579Z,4.25
2022-11-30T20:08:41.530Z,4.28
2022-11-30T20:11:09.844Z,4.28
2022-11-30T20:13:36.811Z,4.32
2022-11-30T20:16:13.871Z,4.32
2022-11-30T20:18:45.782Z,4.32
2022-11-30T20:21:24.087Z,4.34
2022-11-30T20:23:51.916Z,4.36
2022-11-30T20:26:21.642Z,4.31
2022-11-30T20:28:49.859Z,4.30
2022-11-30T20:31:19.075Z,4.27
2022-11-30T20:33:45.984Z,4.28
2022-11-30T20:36:13.762Z,4.25
2022-11-30T20:38:40.298Z,4.18
2022-11-30T20:41:11.234Z,4.24
2022-11-30T20:43:38.866Z,4.26
2022-11-30T20:46:26.650Z,4.22
2022-11-30T20:48:55.379Z,4.22
2022-11-30T20:51:31.379Z,4.15
2022-11-30T20:54:05.570Z,4.16
2022-11-30T20:56:33.412Z,4.13
2022-11-30T20:59:08.364Z,4.16
2022-11-30T21:01:35.101Z,4.17
2022-11-30T21:04:01.735Z,4.23
2022-11-30T21:06:29.745Z,4.21
2022-11-30T21:08:56.931Z,4.15
2022-11-30T21:11:23.721Z,4.19
2022-11-30T21:13:54.382Z,4.14
2022-11-30T21:16:27.551Z,4.08
2022-11-30T21:18:58.067Z,4.07
2022-11-30T21:21:26.292Z,4.07
2022-11-30T21:23:53.898Z,4.09
2022-11-30T21:26:21.925Z,4.05
2022-11-30T21:28:52.812Z,4.05
2022-11-30T21:31:20.409Z,4.04
2022-11-30T21:33:52.805Z,4.04
2022-11-30T21:36:20.516Z,4.00
2022-11-30T21:38:47.070Z,4.04
2022-11-30T21:41:14.432Z,4.07
2022-11-30T21:43:41.930Z,3.98
2022-11-30T21:46:14.449Z,3.99
2022-11-30T21:48:46.969Z,4.04
2022-11-30T21:51:22.476Z,3.99
2022-11-30T21:53:51.969Z,4.00
2022-11-30T21:56:24.029Z,4.03
2022-11-30T21:58:54.161Z,4.02
2022-11-30T22:01:24.249Z,4.09
2022-11-30T22:03:56.959Z,4.14
2022-11-30T22:06:25.257Z,4.15
2022-11-30T22:08:52.064Z,4.13
2022-11-30T22:11:22.933Z,3.95
2022-11-30T22:13:51.194Z,3.95
2022-11-30T22:16:18.690Z,3.97
2022-11-30T22:18:46.301Z,4.00
2022-11-30T22:21:18.273Z,4.02
2022-11-30T22:23:45.659Z,4.05
2022-11-30T22:26:19.636Z,4.06
2022-11-30T22:28:49.480Z,4.05
2022-11-30T22:31:18.561Z,4.03
2022-11-30T22:33:46.207Z,3.99
2022-11-30T22:36:15.599Z,3.96
2022-11-30T22:38:47.661Z,3.95
2022-11-30T22:41:16.917Z,3.93
2022-11-30T22:43:48.000Z,3.90
2022-11-30T22:46:20.171Z,3.90
2022-11-30T22:48:47.430Z,3.87
2022-11-30T22:51:19.584Z,3.83
2022-11-30T22:53:47.912Z,3.73
2022-11-30T22:56:23.082Z,3.76
2022-11-30T22:58:53.889Z,3.79
2022-11-30T23:01:26.435Z,3.75
2022-11-30T23:03:56.171Z,3.74
2022-11-30T23:06:24.222Z,3.68
2022-11-30T23:08:52.029Z,3.57
2022-11-30T23:11:25.848Z,3.56
2022-11-30T23:13:52.885Z,3.58
2022-11-30T23:16:20.064Z,3.50
2022-11-30T23:19:00.392Z,3.48
2022-11-30T23:21:30.250Z,3.49
2022-11-30T23:23:58.976Z,3.45
2022-11-30T23:26:34.098Z,3.36
2022-11-30T23:29:23.460Z,3.32
2022-11-30T23:31:50.057Z,3.30
2022-11-30T23:34:22.202Z,3.32
2022-11-30T23:36:49.026Z,3.26
2022-11-30T23:39:17.415Z,3.17
2022-11-30T23:41:44.125Z,3.17
2022-11-30T23:44:11.300Z,3.18
2022-11-30T23:46:37.842Z,3.02
2022-11-30T23:49:08.043Z,2.92
2022-11-30T23:51:34.519Z,2.85
2022-11-30T23:54:01.079Z,2.93
2022-11-30T23:56:27.573Z,3.00
2022-11-30T23:58:54.037Z,2.98
